Terminal Aerodrome Forecast
Issued by NWS

Home | Current Version | Previous Version | Text Only | Print | Product List | Glossary On
Versions: 1 2 3 4 5 6 7 8 9 10 11 12 13 14 15 16 17 18 19 20 21 22 23 24 25 26 27 28 29 30 31 32 33 34 35 36 37 38 39
000
FTUS42 KCAE 170500
TAFDNL
TAF
KDNL 170536Z 1706/1806 VRB04KT P6SM VCSH SCT015 BKN035
      TEMPO 1707/1709 4SM BR BKN015
     FM170900 VRB03KT 4SM BR OVC015
     FM171300 03004KT P6SM BKN025
     FM171500 03003KT P6SM BKN040=

USA.gov is the U.S. government's official web portal to all federal, state and local government web resources and services.